Tiempo atmosférico en la estación meteorológica de Fuentes de Andalucía, Sevilla (165 m.)



Fecha
DESCASC
Temp. máxima en grados centígrados (hora)
DESCASC
Temp. mínima en grados centígrados (hora)
DESCASC
Temp. media en grados centígrados
DESCASC
Racha de viento máxima en m/sg (hora)
DESCASC
Velocidad máxima media en intervalos de 10 minutos(hora)
DESCASC
Precipitaciones diarias en mm
DESCASC
Precipitaciones de 00:00 a 06:00 en mm
DESCASC
Precipitaciones de 06:00 a 12:00 en mm
DESCASC
Precipitaciones de 12:00 a 18:00 en mm
DESCASC
Precipitaciones de 18:00 a 24:00 en mm
DESCASC
11-12-2019 14.6 (16:10) 6.4 (06:10) 10.5 8.61 (15:50) 5.83 (16:00) 0 0 0 0 0
08-12-2019 17.1 (15:40) 6.6 (00:00) 11.9 4.44 (10:40) 3.06 (08:20) 0 0 0 0 0
07-12-2019 18.1 (16:20) 7 (00:00) 12.6 5.83 (11:40) 3.33 (11:40) 0 0 0 0 0
06-12-2019 17.9 (15:20) 7.9 (00:00) 12.9 8.33 (11:40) 5.28 (11:50) 0 0 0 0 0
05-12-2019 16.3 (15:40) 5.4 (00:00) 10.8 8.06 (14:40) 4.72 (14:40) 0 0 0 0 0
04-12-2019 15.3 (15:40) 8 (23:50) 11.7 6.94 (18:30) 5 (18:30) 0 0 0 0 0
03-12-2019 17.2 (15:40) 8.3 (00:00) 12.8 8.33 (12:30) 4.72 (15:00) 0 0 0 0 0
02-12-2019 15.9 (14:40) 9.7 (00:00) 12.8 7.78 (10:40) 3.89 (12:30) 1 0.2 0.6 0 0.2
01-12-2019 14.4 (15:00) 10.9 (00:00) 12.6 10.83 (15:30) 8.61 (15:20) 1 0.2 0 0.6 0.2
30-11-2019 18.5 (15:40) 9.5 (00:00) 14 11.11 (23:40) 6.11 (23:30) 0 0 0 0 0
29-11-2019 18.9 (15:20) 9.1 (00:00) 14 3.61 (16:30) 2.22 (10:50) 0 0 0 0 0
28-11-2019 17.4 (15:40) 10.7 (02:10) 14 4.17 (00:30) 2.78 (00:30) 0.2 0.2 0 0 0
27-11-2019 16.7 (15:30) 12.3 (00:00) 14.5 13.33 (00:20) 10 (00:20) 0.2 0.2 0 0 0
26-11-2019 17 (16:50) 13.5 (00:00) 15.3 12.78 (23:00) 9.17 (23:00) 1.6 0 0 0.4 1.2
25-11-2019 16.3 (15:40) 10.5 (00:20) 13.4 11.94 (14:20) 8.89 (14:10) 1.8 0 1.2 0.4 0.2
24-11-2019 15.4 (16:20) 6.7 (00:00) 11 8.06 (15:40) 5.83 (20:00) 0 0 0 0 0
23-11-2019 16.2 (15:30) 9.5 (00:00) 12.9 16.39 (00:40) 10.28 (02:40) 0.6 0.4 0.2 0 0
22-11-2019 16.8 (16:20) 12.8 (00:00) 14.8 24.44 (14:40) 17.78 (16:00) 23.4 1.6 3.2 16.8 1.8
21-11-2019 14.3 (12:20) 10.9 (00:00) 12.6 14.44 (12:30) 6.67 (12:30) 45.4 10.6 5.2 23 6.6
20-11-2019 12.1 (18:10) 6 (06:50) 9.1 10.83 (18:50) 7.5 (19:00) 6.4 0 0.2 3.8 2.4
19-11-2019 15.2 (16:20) 5.1 (00:00) 10.1 3.61 (11:30) 2.22 (08:30) 0 0 0 0 0
18-11-2019 15.9 (15:30) 7.3 (00:00) 11.6 14.17 (01:50) 11.11 (01:50) 4.8 4.8 0 0 0
17-11-2019 13.9 (19:50) 4.5 (00:00) 9.2 11.94 (21:40) 7.78 (20:10) 2.4 0 0.6 0.4 1.4
16-11-2019 14.3 (16:40) 2.8 (00:00) 8.6 5.83 (15:10) 4.17 (20:20) 0 0 0 0 0
15-11-2019 11.8 (13:00) 4.8 (00:00) 8.3 8.89 (00:40) 6.11 (00:50) 0.2 0 0 0.2 0
14-11-2019 13.8 (15:40) 7.5 (00:00) 10.7 14.44 (11:40) 10.83 (10:30) 2.6 0 0 2.6 0
13-11-2019 20.6 (16:30) 11.5 (00:00) 16.1 13.33 (11:40) 8.89 (12:30) 0 0 0 0 0
12-11-2019 19.3 (16:40) 8.6 (00:00) 13.9 8.61 (16:40) 6.11 (17:00) 0 0 0 0 0

Gráficas

Temp. máximas Temp. mínimas Temp. medias Precipitaciones Rachas de viento máximas Velocidades máximas media en intervalos de 10 minutos

Datos horarios

Fecha y hora oficial Temperatura (ºC) Velocidad del viento (km/h) Dirección del viento Racha (km/h) Dirección de racha Precipitación (mm) Presión (hPa) Tendencia (hPa) Humedad (%)
2019-12-11 23:00:00 9.1 4 Noroeste 7 Noroeste 0 -- -- 79
2019-12-11 22:00:00 9.3 2 Norte 8 Este 0 -- -- 80
2019-12-11 21:00:00 9.6 3 Este 8 Este 0 -- -- 80
2019-12-11 20:00:00 10.5 4 Nordeste 15 Norte 0 -- -- 77
2019-12-11 19:00:00 12 12 Norte 24 Norte 0 -- -- 70
2019-12-11 18:00:00 13.6 18 Noroeste 24 Noroeste 0 -- -- 73
2019-12-11 17:00:00 14.5 15 Oeste 25 Sudoeste 0 -- -- 70
2019-12-11 16:00:00 14.5 21 Sudoeste 31 Sudoeste 0 -- -- 75
2019-12-11 15:00:00 13.8 16 Sudoeste 28 Sudoeste 0 -- -- 76
2019-12-11 14:00:00 11.7 16 Sudoeste 21 Sudoeste 0 -- -- 89
2019-12-11 13:00:00 9.9 10 Sudoeste 14 Sudoeste 0 -- -- 95
2019-12-11 12:00:00 9.5 13 Sudoeste 18 Sudoeste 0 -- -- 95
2019-12-11 11:00:00 8.9 5 Oeste 11 Norte 0 -- -- 94
2019-12-11 10:00:00 7.7 0 Calma 6 Norte 0 -- -- 94
2019-12-11 09:00:00 7.4 3 Norte 4 Norte 0 -- -- 91
2019-12-11 08:00:00 7.7 0 Calma 7 Sudoeste 0 -- -- 91
2019-12-11 07:00:00 7 4 Sudeste 10 Este 0 -- -- 90
2019-12-11 06:00:00 6.5 7 Este 11 Nordeste 0 -- -- 88
2019-12-11 05:00:00 8.8 2 Noroeste 6 Sudoeste 0 -- -- 82
2019-12-11 04:00:00 8.9 6 Sur 9 Sur 0 -- -- 83
2019-12-11 03:00:00 9.3 3 Sudeste 9 Sudeste 0 -- -- 81
2019-12-11 02:00:00 10.3 4 Sudeste 8 Sur 0 -- -- 78
2019-12-11 01:00:00 11.1 2 Oeste 8 Oeste 0 -- -- 75
2019-12-11 00:00:00 11.9 5 Oeste 9 Sudoeste 0 -- -- 73
2019-12-10 23:00:00 12.7 5 Sudoeste 9 Sudoeste 0 -- -- 70
2019-12-10 22:00:00 12.6 7 Sur 9 Sudoeste 0 -- -- 70
2019-12-10 21:00:00 13.2 5 Sudoeste 6 Sudoeste 0 -- -- 61
2019-12-10 20:00:00 13.5 2 Sur 8 Sudeste 0 -- -- 60
2019-12-10 19:00:00 14.7 6 Sudeste 8 Sudeste 0 -- -- 53
2019-12-10 18:00:00 15.7 3 Sur 9 Nordeste 0 -- -- 50
2019-12-10 17:00:00 17.2 4 Nordeste 13 Nordeste 0 -- -- 48
2019-12-10 16:00:00 17.6 8 Nordeste 15 Este 0 -- -- 46
2019-12-10 15:00:00 17.1 9 Nordeste 21 Nordeste 0 -- -- 49
2019-12-10 14:00:00 16.1 8 Nordeste 22 Nordeste 0 -- -- 55
2019-12-10 13:00:00 14.9 8 Nordeste 25 Nordeste 0 -- -- 62
2019-12-10 12:00:00 13.5 10 Nordeste 29 Nordeste 0 -- -- 70
2019-12-10 11:00:00 11.3 14 Nordeste 25 Nordeste 0 -- -- 80
2019-12-10 10:00:00 9.5 12 Nordeste 27 Nordeste 0 -- -- 91
2019-12-10 09:00:00 7.7 8 Nordeste 17 Nordeste 0 -- -- 93
2019-12-10 08:00:00 7.5 8 Nordeste 17 Nordeste 0 -- -- 93
2019-12-10 07:00:00 8.1 9 Nordeste 16 Este 0 -- -- 92
2019-12-10 06:00:00 8.4 13 Este 22 Este 0 -- -- 92
2019-12-10 05:00:00 8.7 5 Nordeste 13 Nordeste 0 -- -- 92
2019-12-10 04:00:00 9 6 Nordeste 15 Nordeste 0 -- -- 93
2019-12-10 03:00:00 9 6 Nordeste 13 Este 0 -- -- 92
2019-12-10 02:00:00 9.6 6 Nordeste 13 Nordeste 0 -- -- 91
2019-12-10 01:00:00 10.2 10 Este 13 Este 0 -- -- 90
2019-12-10 00:00:00 10.8 6 Este 10 Este 0 -- -- 89
2019-12-09 23:00:00 11.3 3 Este 9 Este 0 -- -- 87
2019-12-09 22:00:00 12.3 4 Este 7 Este 0 -- -- 86
2019-12-09 21:00:00 12.6 3 Este 5 Norte 0 -- -- 87
2019-12-09 20:00:00 13.2 2 Este 8 Este 0 -- -- 84
2019-12-09 19:00:00 14.4 4 Nordeste 7 Norte 0 -- -- 79
2019-12-09 18:00:00 15.8 5 Norte 10 Norte 0 -- -- 74
2019-12-09 17:00:00 16.8 4 Norte 9 Norte 0 -- -- 71
2019-12-09 16:00:00 16.5 4 Norte 9 Norte 0 -- -- 74
2019-12-09 15:00:00 16.2 4 Este 10 Nordeste 0 -- -- 77
2019-12-09 14:00:00 15.4 4 Este 7 Este 0 -- -- 82
2019-12-09 13:00:00 14.5 0 Calma 6 Este 0 -- -- 86
2019-12-09 12:00:00 13.8 2 Este 4 Nordeste 0 -- -- 88
2019-12-09 11:00:00 13.2 0 Calma 6 Este 0 -- -- 90
2019-12-09 10:00:00 12.4 3 Este 5 Este 0 -- -- 90
2019-12-09 09:00:00 12.2 0 Calma 6 Norte 0 -- -- 90
2019-12-09 08:00:00 12 3 Este 5 Este 0 -- -- 89
2019-12-09 07:00:00 11.9 3 Sur 6 Sur 0 -- -- 88
2019-12-09 06:00:00 11.8 3 Sur 9 Sur 0 -- -- 87
2019-12-09 05:00:00 11.8 7 Sur 9 Sudoeste 0 -- -- 86
2019-12-09 04:00:00 11.7 7 Sudoeste 13 Sur 0 -- -- 86
2019-12-09 03:00:00 11.6 10 Sur 12 Sur 0 -- -- 86
2019-12-09 02:00:00 11.6 9 Sudoeste 16 Sudoeste 0 -- -- 86
2019-12-09 01:00:00 11.7 13 Sur 14 Sur 0 -- -- 85
2019-12-09 00:00:00 11.9 11 Sur 13 Sur 0 -- -- 83
2019-12-08 23:00:00 13.2 5 Oeste 9 Oeste 0 -- -- 79
2019-12-08 22:00:00 13.1 5 Noroeste 7 Noroeste 0 -- -- 80
2019-12-08 21:00:00 13.7 7 Sudoeste 9 Sudoeste 0 -- -- 73
2019-12-08 20:00:00 13.6 0 Calma 6 Norte 0 -- -- 73
2019-12-08 19:00:00 14.4 4 Norte 8 Noroeste 0 -- -- 71
2019-12-08 18:00:00 15.9 3 Noroeste 9 Oeste 0 -- -- 68
2019-12-08 17:00:00 16.8 6 Oeste 12 Noroeste 0 -- -- 64
2019-12-08 16:00:00 16.6 4 Oeste 10 Noroeste 0 -- -- 63
2019-12-08 15:00:00 16.8 4 Oeste 9 Norte 0 -- -- 62
2019-12-08 14:00:00 16.5 2 Sur 10 Este 0 -- -- 62
2019-12-08 13:00:00 15 6 Este 14 Este 0 -- -- 67
2019-12-08 12:00:00 13.2 6 Nordeste 14 Este 0 -- -- 77
2019-12-08 11:00:00 11 6 Nordeste 16 Este 0 -- -- 85
2019-12-08 10:00:00 8.7 6 Nordeste 15 Nordeste 0 -- -- 94
2019-12-08 09:00:00 6.7 9 Este 14 Este 0 -- -- 94
2019-12-08 08:00:00 6.7 6 Este 13 Este 0 -- -- 94
2019-12-08 07:00:00 6.8 8 Este 12 Este 0 -- -- 94
2019-12-08 06:00:00 7.2 7 Este 13 Este 0 -- -- 93
2019-12-08 05:00:00 7.5 7 Este 11 Este 0 -- -- 91
2019-12-08 04:00:00 8.3 5 Este 13 Este 0 -- -- 90
2019-12-08 03:00:00 8.5 8 Este 10 Este 0 -- -- 88
2019-12-08 02:00:00 9.9 4 Sudeste 8 Este 0 -- -- 85
2019-12-08 01:00:00 9.4 2 Sudeste 10 Este 0 -- -- 85
2019-12-08 00:00:00 11 6 Este 9 Este 0 -- -- 77
2019-12-07 23:00:00 12.2 4 Este 5 Este 0 -- -- 72
2019-12-07 22:00:00 12.4 4 Nordeste 6 Nordeste 0 -- -- 73
2019-12-07 21:00:00 13 4 Nordeste 5 Nordeste 0 -- -- 71
2019-12-07 20:00:00 13.6 4 Este 5 Este 0 -- -- 68
2019-12-07 19:00:00 14.4 3 Este 4 Este 0 -- -- 68
2019-12-07 18:00:00 16.7 0 Calma 5 Norte 0 -- -- 63
2019-12-07 17:00:00 17.9 0 Calma 7 Nordeste 0 -- -- 56
2019-12-07 16:00:00 18 2 Nordeste 12 Este 0 -- -- 57
2019-12-07 15:00:00 17.4 5 Nordeste 10 Norte 0 -- -- 58
2019-12-07 14:00:00 16.5 5 Nordeste 16 Este 0 -- -- 62
2019-12-07 13:00:00 15.4 9 Nordeste 19 Nordeste 0 -- -- 65
2019-12-07 12:00:00 14 7 Nordeste 21 Este 0 -- -- 72
2019-12-07 11:00:00 12.1 9 Nordeste 19 Este 0 -- -- 78
2019-12-07 10:00:00 9.6 6 Nordeste 15 Este 0 -- -- 92
2019-12-07 09:00:00 7.3 5 Nordeste 12 Nordeste 0 -- -- 94
2019-12-07 08:00:00 7 5 Nordeste 10 Este 0 -- -- 93
2019-12-07 07:00:00 7.5 4 Nordeste 15 Este 0 -- -- 91
2019-12-07 06:00:00 8.2 8 Este 17 Este 0 -- -- 91
2019-12-07 05:00:00 8 5 Nordeste 13 Este 0 -- -- 90
2019-12-07 04:00:00 8.6 6 Este 12 Este 0 -- -- 89
2019-12-07 03:00:00 9.3 8 Este 12 Este 0 -- -- 87
2019-12-07 02:00:00 9.3 8 Este 12 Este 0 -- -- 87
2019-12-07 01:00:00 9.7 4 Nordeste 13 Este 0 -- -- 85
2019-12-07 00:00:00 10 6 Este 12 Este 0 -- -- 84
2019-12-06 23:00:00 10.8 6 Este 11 Este 0 -- -- 81
2019-12-06 22:00:00 11.8 6 Este 13 Este 0 -- -- 78
2019-12-06 21:00:00 12.5 5 Norte 9 Nordeste 0 -- -- 75
2019-12-06 20:00:00 13.2 3 Nordeste 8 Este 0 -- -- 72
2019-12-06 19:00:00 14.5 5 Este 6 Este 0 -- -- 69
2019-12-06 18:00:00 16.1 4 Este 15 Nordeste 0 -- -- 63
2019-12-06 17:00:00 17.7 9 Este 21 Este 0 -- -- 57
2019-12-06 16:00:00 17.9 7 Nordeste 19 Nordeste 0 -- -- 56
2019-12-06 15:00:00 17.7 8 Nordeste 19 Este 0 -- -- 56
2019-12-06 14:00:00 16.9 9 Este 22 Nordeste 0 -- -- 58
2019-12-06 13:00:00 16.2 10 Nordeste 27 Nordeste 0 -- -- 61
2019-12-06 12:00:00 14.6 16 Este 30 Este 0 -- -- 66
2019-12-06 11:00:00 12.8 11 Nordeste 27 Nordeste 0 -- -- 72
2019-12-06 10:00:00 10.6 8 Nordeste 17 Nordeste 0 -- -- 80
2019-12-06 09:00:00 8.2 8 Nordeste 17 Nordeste 0 -- -- 87
2019-12-06 08:00:00 8.3 6 Nordeste 17 Nordeste 0 -- -- 86
2019-12-06 07:00:00 8.2 4 Nordeste 12 Este 0 -- -- 86
2019-12-06 06:00:00 8.5 10 Nordeste 17 Este 0 -- -- 86
2019-12-06 05:00:00 8.8 12 Este 15 Este 0 -- -- 86
2019-12-06 04:00:00 8.8 5 Nordeste 15 Nordeste 0 -- -- 86
2019-12-06 03:00:00 9.5 5 Nordeste 16 Nordeste 0 -- -- 84
2019-12-06 02:00:00 9.8 7 Nordeste 15 Nordeste 0 -- -- 84
2019-12-06 01:00:00 9.6 7 Nordeste 13 Nordeste 0 -- -- 87
2019-12-06 00:00:00 10.1 6 Nordeste 10 Este 0 -- -- 85
2019-12-05 23:00:00 11.3 6 Este 11 Este 0 -- -- 83
2019-12-05 22:00:00 10.9 5 Nordeste 12 Este 0 -- -- 83
2019-12-05 21:00:00 10.6 4 Este 12 Este 0 -- -- 83
2019-12-05 20:00:00 11.4 5 Nordeste 9 Nordeste 0 -- -- 79
2019-12-05 19:00:00 12.5 7 Nordeste 15 Nordeste 0 -- -- 75
2019-12-05 18:00:00 14.3 5 Nordeste 17 Nordeste 0 -- -- 68
2019-12-05 17:00:00 15.9 10 Nordeste 26 Este 0 -- -- 59
2019-12-05 16:00:00 16.2 14 Nordeste 26 Este 0 -- -- 60
2019-12-05 15:00:00 16.1 12 Nordeste 29 Este 0 -- -- 65
2019-12-05 14:00:00 15.7 13 Nordeste 29 Este 0 -- -- 66
2019-12-05 13:00:00 14.8 14 Nordeste 26 Nordeste 0 -- -- 71
2019-12-05 12:00:00 13.7 10 Nordeste 21 Este 0 -- -- 76
2019-12-05 11:00:00 11.7 6 Nordeste 18 Nordeste 0 -- -- 76
2019-12-05 10:00:00 9.9 7 Nordeste 15 Este 0 -- -- 81
2019-12-05 09:00:00 6.3 5 Nordeste 13 Nordeste 0 -- -- 92
2019-12-05 08:00:00 5.4 3 Nordeste 7 Este 0 -- -- 90
2019-12-05 07:00:00 6 4 Este 11 Este 0 -- -- 87
2019-12-05 06:00:00 6.2 5 Sudeste 9 Sur 0 -- -- 88
2019-12-05 05:00:00 6.3 4 Este 7 Este 0 -- -- 86
2019-12-05 04:00:00 6.8 5 Este 6 Este 0 -- -- 84
2019-12-05 03:00:00 7.6 3 Sur 8 Sur 0 -- -- 80
2019-12-05 02:00:00 7.8 2 Sudeste 9 Sur 0 -- -- 79
2019-12-05 01:00:00 7.7 9 Sudoeste 21 Sur 0 -- -- 80
2019-12-05 00:00:00 8.1 9 Sudoeste 13 Sudoeste 0 -- -- 79
2019-12-04 23:00:00 8.5 10 Sudoeste 15 Sudoeste 0 -- -- 78
2019-12-04 22:00:00 9.1 9 Sudoeste 14 Sur 0 -- -- 77
2019-12-04 21:00:00 9.4 10 Sur 14 Sudoeste 0 -- -- 75
2019-12-04 20:00:00 10.1 9 Sudoeste 13 Sudoeste 0 -- -- 68
2019-12-04 19:00:00 10.9 9 Sudoeste 25 Sudoeste 0 -- -- 71
2019-12-04 18:00:00 13 11 Sudoeste 22 Sudoeste 0 -- -- 70
2019-12-04 17:00:00 14 9 Oeste 21 Sudoeste 0 -- -- 71
2019-12-04 16:00:00 15.2 8 Sudoeste 15 Oeste 0 -- -- 68
2019-12-04 15:00:00 15.1 3 Nordeste 11 Oeste 0 -- -- 65
2019-12-04 14:00:00 14.8 4 Noroeste 12 Sudoeste 0 -- -- 66
2019-12-04 13:00:00 14.3 6 Sudoeste 16 Sur 0 -- -- 70
2019-12-04 12:00:00 13.7 10 Sur 17 Sur 0 -- -- 68
2019-12-04 11:00:00 11.9 8 Este 15 Este 0 -- -- 73
2019-12-04 10:00:00 10.1 7 Este 13 Este 0 -- -- 82
2019-12-04 09:00:00 9.5 7 Nordeste 13 Nordeste 0 -- -- 84
2019-12-04 08:00:00 9.2 2 Nordeste 10 Nordeste 0 -- -- 86
2019-12-04 07:00:00 9.6 4 Norte 12 Este 0 -- -- 83
2019-12-04 06:00:00 10.5 7 Este 12 Este 0 -- -- 79
2019-12-04 05:00:00 10.5 5 Este 11 Nordeste 0 -- -- 81
2019-12-04 04:00:00 10.5 8 Este 13 Este 0 -- -- 80
2019-12-04 03:00:00 10.9 10 Este 19 Este 0 -- -- 78
2019-12-04 02:00:00 11.5 10 Este 17 Este 0 -- -- 80
2019-12-04 01:00:00 11.8 5 Nordeste 10 Este 0 -- -- 80
2019-12-04 00:00:00 11.9 3 Nordeste 6 Norte 0 -- -- 79
2019-12-03 23:00:00 12.5 3 Nordeste 14 Este 0 -- -- 78
2019-12-03 22:00:00 12.7 3 Nordeste 7 Nordeste 0 -- -- 83
2019-12-03 21:00:00 12.9 4 Norte 8 Noroeste 0 -- -- 78
2019-12-03 20:00:00 13 5 Norte 7 Norte 0 -- -- 79
2019-12-03 19:00:00 13.5 3 Nordeste 7 Nordeste 0 -- -- 74
2019-12-03 18:00:00 15.1 4 Este 20 Este 0 -- -- 69
2019-12-03 17:00:00 16.3 13 Este 27 Este 0 -- -- 60
2019-12-03 16:00:00 17.2 13 Nordeste 28 Nordeste 0 -- -- 58
2019-12-03 15:00:00 16.8 17 Este 28 Este 0 -- -- 60
2019-12-03 14:00:00 16.7 13 Nordeste 28 Norte 0 -- -- 60
2019-12-03 13:00:00 15.8 12 Nordeste 30 Este 0 -- -- 65
2019-12-03 12:00:00 14.8 8 Nordeste 23 Nordeste 0 -- -- 69
2019-12-03 11:00:00 12.9 8 Nordeste 18 Nordeste 0 -- -- 77
2019-12-03 10:00:00 11 8 Nordeste 14 Nordeste 0 -- -- 82
2019-12-03 09:00:00 8.4 4 Nordeste 10 Norte 0 -- -- 91
2019-12-03 08:00:00 8.6 6 Nordeste 13 Nordeste 0 -- -- 90
2019-12-03 07:00:00 8.8 5 Nordeste 15 Nordeste 0 -- -- 90
2019-12-03 06:00:00 8.8 4 Nordeste 10 Este 0 -- -- 90
2019-12-03 05:00:00 9.1 5 Nordeste 12 Este 0 -- -- 90
2019-12-03 04:00:00 9.3 8 Este 11 Este 0 -- -- 90
2019-12-03 03:00:00 9.3 5 Nordeste 12 Nordeste 0 -- -- 90
2019-12-03 02:00:00 9.9 5 Nordeste 10 Este 0 -- -- 89
2019-12-03 01:00:00 10.2 5 Nordeste 17 Este 0 -- -- 88
2019-12-03 00:00:00 11.2 13 Este 20 Este 0 -- -- 84
2019-12-02 23:00:00 11.2 7 Este 13 Nordeste 0 -- -- 85
2019-12-02 22:00:00 12 8 Nordeste 13 Nordeste 0 -- -- 83
2019-12-02 21:00:00 12.2 4 Nordeste 10 Nordeste 0 -- -- 87
2019-12-02 20:00:00 12.7 4 Nordeste 11 Este 0.2 -- -- 88
2019-12-02 19:00:00 13.5 4 Sudeste 12 Este 0 -- -- 83
2019-12-02 18:00:00 14.4 9 Este 23 Este 0 -- -- 75
2019-12-02 17:00:00 15.7 11 Nordeste 23 Este 0 -- -- 69
2019-12-02 16:00:00 15.1 8 Nordeste 26 Nordeste 0 -- -- 74
2019-12-02 15:00:00 15.5 8 Nordeste 23 Este 0 -- -- 73
2019-12-02 14:00:00 14.1 9 Nordeste 22 Este 0 -- -- 79
2019-12-02 13:00:00 13.3 9 Nordeste 27 Este 0 -- -- 85
2019-12-02 12:00:00 13 9 Nordeste 27 Este 0 -- -- 88
2019-12-02 11:00:00 12.3 13 Nordeste 28 Nordeste 0 -- -- 93
2019-12-02 10:00:00 11.2 10 Nordeste 22 Nordeste 0.4 -- -- 96
2019-12-02 09:00:00 10 5 Nordeste 21 Este 0 -- -- 96
2019-12-02 08:00:00 9.9 8 Nordeste 18 Este 0 -- -- 96
2019-12-02 07:00:00 9.7 6 Nordeste 14 Nordeste 0.2 -- -- 95
2019-12-02 06:00:00 9.9 6 Nordeste 15 Este 0 -- -- 95
2019-12-02 05:00:00 10.1 7 Este 16 Este 0 -- -- 94
2019-12-02 04:00:00 10.6 8 Este 13 Este 0 -- -- 95
2019-12-02 03:00:00 10.8 3 Sur 10 Sur 0 -- -- 96
2019-12-02 02:00:00 10.9 8 Sur 11 Sur 0.2 -- -- 96
2019-12-02 01:00:00 11 9 Sur 10 Sur 0 -- -- 96
2019-12-02 00:00:00 11.5 9 Sudoeste 17 Sudoeste 0 -- -- 96
2019-12-01 23:00:00 11.7 10 Sudoeste 18 Sudoeste 0 -- -- 96
2019-12-01 22:00:00 11.9 12 Sudoeste 25 Sudoeste 0 -- -- 96
2019-12-01 21:00:00 12 13 Sur 23 Sudoeste 0.2 -- -- 96
2019-12-01 20:00:00 12.1 15 Sudoeste 27 Sudoeste 0 -- -- 95
2019-12-01 19:00:00 11.8 14 Sur 23 Sudoeste 0 -- -- 94
2019-12-01 18:00:00 12.6 18 Sudoeste 37 Sudoeste 0 -- -- 91
2019-12-01 17:00:00 13.4 21 Sudoeste 29 Sudoeste 0 -- -- 91
2019-12-01 16:00:00 13.3 23 Sudoeste 39 Sudoeste 0.6 -- -- 91
2019-12-01 15:00:00 14.4 26 Sudoeste 34 Sudoeste 0 -- -- 81
2019-12-01 14:00:00 14 26 Sudoeste 38 Sudoeste 0 -- -- 85
2019-12-01 13:00:00 13.7 27 Sudoeste 37 Sudoeste 0 -- -- 86
2019-12-01 12:00:00 13.4 18 Sudoeste 23 Sudoeste 0 -- -- 93
2019-12-01 11:00:00 12.4 14 Sudoeste 18 Sudoeste 0 -- -- 96
2019-12-01 10:00:00 11.2 12 Sudoeste 19 Sudoeste 0 -- -- 97
2019-12-01 09:00:00 11.4 13 Sudoeste 22 Sudoeste 0 -- -- 97
2019-12-01 08:00:00 11.2 5 Sudoeste 15 Sudoeste 0 -- -- 97
2019-12-01 07:00:00 11.7 14 Sudoeste 18 Sudoeste 0 -- -- 96
2019-12-01 06:00:00 12 10 Sur 14 Sudoeste 0 -- -- 96
2019-12-01 05:00:00 11.9 6 Noroeste 16 Oeste 0 -- -- 95
2019-12-01 04:00:00 13 13 Oeste 23 Oeste 0 -- -- 95
2019-12-01 03:00:00 13.7 15 Oeste 21 Oeste 0 -- -- 96
2019-12-01 02:00:00 14 17 Oeste 27 Oeste 0 -- -- 96
2019-12-01 01:00:00 13.9 16 Sudoeste 29 Sudoeste 0.2 -- -- 95
2019-12-01 00:00:00 14.2 19 Sudoeste 40 Sudoeste 0 -- -- 90
2019-11-30 23:00:00 14.2 18 Sudoeste 26 Sudoeste 0 -- -- 88
2019-11-30 22:00:00 14.6 17 Sudoeste 24 Sudoeste 0 -- -- 85
2019-11-30 21:00:00 15.1 15 Sudoeste 21 Sudoeste 0 -- -- 83
2019-11-30 20:00:00 15.3 12 Oeste 20 Oeste 0 -- -- 78
2019-11-30 19:00:00 15.9 13 Oeste 20 Sudoeste 0 -- -- 80
2019-11-30 18:00:00 16.2 12 Sudoeste 23 Oeste 0 -- -- 78
2019-11-30 17:00:00 17.9 18 Oeste 27 Oeste 0 -- -- 67
2019-11-30 16:00:00 18.4 16 Oeste 23 Oeste 0 -- -- 67
2019-11-30 15:00:00 18.2 11 Oeste 18 Oeste 0 -- -- 68
2019-11-30 14:00:00 17.9 4 Oeste 12 Norte 0 -- -- 65
2019-11-30 13:00:00 16.7 6 Norte 15 Norte 0 -- -- 75
2019-11-30 12:00:00 15.3 5 Nordeste 13 Nordeste 0 -- -- 79
2019-11-30 11:00:00 13.8 6 Nordeste 15 Nordeste 0 -- -- 84
2019-11-30 10:00:00 12 4 Nordeste 13 Nordeste 0 -- -- 94
2019-11-30 09:00:00 10.1 4 Nordeste 12 Este 0 -- -- 95
2019-11-30 08:00:00 9.6 4 Nordeste 10 Este 0 -- -- 95
2019-11-30 07:00:00 9.8 3 Nordeste 10 Este 0 -- -- 94
2019-11-30 06:00:00 10.1 4 Nordeste 10 Nordeste 0 -- -- 94
2019-11-30 05:00:00 10.5 3 Nordeste 7 Nordeste 0 -- -- 94
2019-11-30 04:00:00 10.5 4 Este 8 Este 0 -- -- 93
2019-11-30 03:00:00 10.8 4 Nordeste 8 Nordeste 0 -- -- 93
2019-11-30 02:00:00 11.2 4 Nordeste 8 Nordeste 0 -- -- 92
2019-11-30 01:00:00 11.5 4 Nordeste 8 Nordeste 0 -- -- 92
2019-11-30 00:00:00 11.8 3 Nordeste 6 Nordeste 0 -- -- 91
2019-11-29 23:00:00 12.6 3 Nordeste 6 Nordeste 0 -- -- 88
2019-11-29 22:00:00 13.4 3 Este 6 Este 0 -- -- 86
2019-11-29 21:00:00 13.8 3 Este 7 Este 0 -- -- 86
2019-11-29 20:00:00 14.4 3 Este 6 Este 0 -- -- 83
2019-11-29 19:00:00 15.4 3 Este 5 Este 0 -- -- 80
2019-11-29 18:00:00 17.1 3 Este 8 Nordeste 0 -- -- 74
2019-11-29 17:00:00 18.4 5 Nordeste 13 Nordeste 0 -- -- 67
2019-11-29 16:00:00 18.7 6 Nordeste 13 Este 0 -- -- 62
2019-11-29 15:00:00 18.7 5 Nordeste 12 Nordeste 0 -- -- 67
2019-11-29 14:00:00 18 4 Nordeste 11 Este 0 -- -- 73
2019-11-29 13:00:00 17 5 Nordeste 12 Norte 0 -- -- 77
2019-11-29 12:00:00 15.7 5 Nordeste 11 Nordeste 0 -- -- 80
2019-11-29 11:00:00 14.2 7 Este 12 Este 0 -- -- 83
2019-11-29 10:00:00 11.4 4 Este 10 Este 0 -- -- 96
2019-11-29 09:00:00 9.2 4 Nordeste 9 Este 0 -- -- 96
2019-11-29 08:00:00 9.2 5 Este 9 Este 0 -- -- 96
2019-11-29 07:00:00 9.3 8 Este 10 Este 0 -- -- 95
2019-11-29 06:00:00 9.5 7 Este 10 Este 0 -- -- 95
2019-11-29 05:00:00 10.4 5 Este 9 Este 0 -- -- 94
2019-11-29 04:00:00 11.2 0 Calma 4 Este 0 -- -- 94
2019-11-29 03:00:00 11.2 2 Nordeste 4 Nordeste 0 -- -- 94
2019-11-29 02:00:00 11.2 2 Este 6 Noroeste 0 -- -- 92
2019-11-29 01:00:00 12 2 Este 5 Noroeste 0 -- -- 89
2019-11-29 00:00:00 12.5 4 Sudeste 8 Sudeste 0 -- -- 88
2019-11-28 23:00:00 12.8 5 Este 9 Sudeste 0 -- -- 88
2019-11-28 22:00:00 13.6 3 Sudeste 5 Sudeste 0 -- -- 84
2019-11-28 21:00:00 13.9 5 Sudeste 9 Sudeste 0 -- -- 84
2019-11-28 20:00:00 14.3 3 Sur 4 Sur 0 -- -- 81
2019-11-28 19:00:00 15 2 Sur 8 Sur 0 -- -- 77
2019-11-28 18:00:00 16.4 4 Sur 6 Sudoeste 0 -- -- 75
2019-11-28 17:00:00 17.2 3 Sudoeste 8 Oeste 0 -- -- 69
2019-11-28 16:00:00 17.3 4 Oeste 11 Oeste 0 -- -- 66
2019-11-28 15:00:00 16.9 5 Norte 10 Norte 0 -- -- 75
2019-11-28 14:00:00 16.1 5 Norte 11 Nordeste 0 -- -- 86
2019-11-28 13:00:00 15.3 5 Nordeste 10 Nordeste 0 -- -- 96
2019-11-28 12:00:00 14.3 4 Este 8 Este 0 -- -- 97
2019-11-28 11:00:00 13.5 3 Este 8 Este 0 -- -- 98
2019-11-28 10:00:00 13 3 Este 12 Sur 0 -- -- 98
2019-11-28 09:00:00 12.7 3 Nordeste 9 Norte 0 -- -- 98
2019-11-28 08:00:00 12.4 2 Sur 9 Este 0 -- -- 98
2019-11-28 07:00:00 12.4 5 Este 10 Este 0 -- -- 98
2019-11-28 06:00:00 12.4 5 Sudoeste 11 Sudoeste 0 -- -- 97
2019-11-28 05:00:00 12.2 5 Sur 12 Sur 0 -- -- 97
2019-11-28 04:00:00 11.9 9 Sur 12 Sur 0.2 -- -- 97
2019-11-28 03:00:00 11.2 9 Sur 12 Sur 0 -- -- 97
2019-11-28 02:00:00 10.8 8 Sur 10 Sur 0 -- -- 95
2019-11-28 01:00:00 12 8 Sur 15 Sudoeste 0 -- -- 94
2019-11-28 00:00:00 12.3 7 Oeste 13 Oeste 0 -- -- 94
2019-11-27 23:00:00 12.8 9 Oeste 16 Oeste 0 -- -- 92
2019-11-27 22:00:00 13.4 10 Oeste 14 Oeste 0 -- -- 90
2019-11-27 21:00:00 13.8 11 Oeste 13 Oeste 0 -- -- 90
2019-11-27 20:00:00 14.1 9 Sudoeste 15 Sudoeste 0 -- -- 91
2019-11-27 19:00:00 14.6 10 Sudoeste 15 Oeste 0 -- -- 90
2019-11-27 18:00:00 15.5 12 Sudoeste 16 Sudoeste 0 -- -- 86
2019-11-27 17:00:00 16.4 15 Oeste 22 Sudoeste 0 -- -- 80
2019-11-27 16:00:00 16.6 9 Oeste 15 Oeste 0 -- -- 80
2019-11-27 15:00:00 16.6 12 Oeste 19 Sudoeste 0 -- -- 81
2019-11-27 14:00:00 16.4 13 Sudoeste 18 Sudoeste 0 -- -- 85
2019-11-27 06:00:00 -- -- -- -- -- -- -- -- --
2019-11-27 05:00:00 14.2 17 Sudoeste 25 Sudoeste 0 -- -- 98
2019-11-27 04:00:00 14.3 18 Sudoeste 27 Sudoeste 0 -- -- 97
2019-11-27 03:00:00 14.2 20 Sudoeste 27 Sudoeste 0 -- -- 97
2019-11-27 02:00:00 14.8 21 Sudoeste 34 Sudoeste 0 -- -- 97
2019-11-27 01:00:00 15 34 Sudoeste 48 Sudoeste 0.2 -- -- 97
2019-11-27 00:00:00 15.2 33 Sudoeste 44 Sudoeste 0.2 -- -- 96
2019-11-26 23:00:00 15.3 33 Sudoeste 46 Sudoeste 1 -- -- 96
2019-11-26 22:00:00 15.6 27 Sudoeste 36 Sudoeste 0 -- -- 95
2019-11-26 21:00:00 15.5 27 Sudoeste 37 Sudoeste 0 -- -- 95
2019-11-26 20:00:00 15.8 28 Sudoeste 37 Sudoeste 0 -- -- 93
2019-11-26 19:00:00 16.1 21 Sudoeste 34 Sudoeste 0 -- -- 91
2019-11-26 18:00:00 16.8 15 Sudoeste 25 Oeste 0 -- -- 92
2019-11-26 17:00:00 17 18 Sudoeste 22 Sudoeste 0 -- -- 95
2019-11-26 16:00:00 16.5 13 Oeste 21 Oeste 0.2 -- -- 97
2019-11-26 15:00:00 16.5 17 Oeste 23 Sudoeste 0 -- -- 97
2019-11-26 14:00:00 16.3 14 Sudoeste 22 Sudoeste 0.2 -- -- 98
2019-11-26 13:00:00 15.9 9 Sudoeste 13 Sudoeste 0 -- -- 97
2019-11-26 12:00:00 15.3 8 Sur 17 Sudoeste 0 -- -- 98
2019-11-26 11:00:00 14.7 4 Sur 8 Sur 0 -- -- 98
2019-11-26 10:00:00 14 4 Sudeste 8 Sudeste 0 -- -- 98
2019-11-26 09:00:00 13.7 2 Sudoeste 8 Sudoeste 0 -- -- 98
2019-11-26 08:00:00 13.8 5 Sur 8 Sudoeste 0 -- -- 98
2019-11-26 07:00:00 13.8 4 Oeste 8 Sudoeste 0 -- -- 98
2019-11-26 06:00:00 13.5 6 Sur 12 Sur 0 -- -- 98
2019-11-26 05:00:00 13.7 10 Sur 13 Sur 0 -- -- 98
2019-11-26 04:00:00 14 5 Sur 8 Sur 0 -- -- 98
2019-11-26 03:00:00 14.6 5 Oeste 16 Oeste 0 -- -- 98
2019-11-26 02:00:00 15 8 Oeste 14 Noroeste 0 -- -- 98
2019-11-26 01:00:00 15.3 9 Oeste 14 Noroeste 0 -- -- 98
2019-11-26 00:00:00 15.7 9 Oeste 17 Oeste 0 -- -- 98
2019-11-25 23:00:00 15.7 14 Oeste 21 Oeste 0.2 -- -- 98
2019-11-25 22:00:00 15.9 18 Sudoeste 25 Oeste 0 -- -- 98
2019-11-25 21:00:00 16 16 Sudoeste 28 Sudoeste 0 -- -- 98
2019-11-25 20:00:00 16 19 Sudoeste 27 Sudoeste 0 -- -- 97
2019-11-25 19:00:00 16.1 22 Sudoeste 28 Sudoeste 0 -- -- 97
2019-11-25 18:00:00 16.1 21 Sudoeste 37 Sudoeste 0 -- -- 97
2019-11-25 17:00:00 16.2 27 Sudoeste 40 Sudoeste 0.2 -- -- 97
2019-11-25 16:00:00 16.3 30 Sudoeste 40 Sudoeste 0 -- -- 97
2019-11-25 15:00:00 16.1 29 Sudoeste 43 Sudoeste 0 -- -- 97
2019-11-25 14:00:00 15.9 28 Sudoeste 40 Sudoeste 0 -- -- 97
2019-11-25 13:00:00 15.1 25 Sudoeste 34 Sudoeste 0.2 -- -- 97
2019-11-25 12:00:00 14.7 23 Sudoeste 32 Sudoeste 0.4 -- -- 96
2019-11-25 11:00:00 14.3 22 Sudoeste 30 Sudoeste 0 -- -- 96
2019-11-25 10:00:00 13.5 20 Sudoeste 28 Sudoeste 0.2 -- -- 97
2019-11-25 09:00:00 12.6 18 Sudoeste 23 Sudoeste 0.6 -- -- 96
2019-11-25 08:00:00 11.9 11 Sur 19 Sur 0 -- -- 96
2019-11-25 07:00:00 11.3 11 Sur 18 Sur 0 -- -- 95
2019-11-25 06:00:00 11.1 7 Sur 13 Sudoeste 0 -- -- 93
2019-11-25 05:00:00 11.1 11 Sudoeste 14 Sur 0 -- -- 91
2019-11-25 04:00:00 11 7 Sur 13 Sur 0 -- -- 91
2019-11-25 03:00:00 10.8 11 Sur 16 Sur 0 -- -- 91
2019-11-25 02:00:00 10.8 9 Sur 12 Sur 0 -- -- 91
2019-11-25 01:00:00 10.5 5 Sudoeste 17 Sur 0 -- -- 92
2019-11-25 00:00:00 10.6 11 Sur 19 Sudoeste 0 -- -- 92
2019-11-24 23:00:00 10.7 9 Sudoeste 18 Sudoeste 0 -- -- 91
2019-11-24 22:00:00 11.2 13 Sudoeste 20 Sudoeste 0 -- -- 90
2019-11-24 21:00:00 11.7 17 Sudoeste 29 Sudoeste 0 -- -- 88
2019-11-24 20:00:00 12.5 21 Sudoeste 26 Sudoeste 0 -- -- 84
2019-11-24 19:00:00 13.1 15 Sudoeste 22 Sudoeste 0 -- -- 80
2019-11-24 18:00:00 13.6 17 Sudoeste 22 Sudoeste 0 -- -- 78
2019-11-24 17:00:00 15 17 Sudoeste 26 Sudoeste 0 -- -- 69
2019-11-24 16:00:00 15.3 17 Sudoeste 29 Sudoeste 0 -- -- 65
2019-11-24 15:00:00 14.7 13 Sudoeste 21 Sudoeste 0 -- -- 71
2019-11-24 14:00:00 13.7 12 Sudoeste 17 Sudoeste 0 -- -- 74
2019-11-24 13:00:00 12.6 9 Sudoeste 13 Sudoeste 0 -- -- 78
2019-11-24 12:00:00 11.5 5 Sur 10 Sur 0 -- -- 81
2019-11-24 11:00:00 9.4 6 Sudoeste 13 Sur 0 -- -- 90
2019-11-24 10:00:00 7.9 9 Sur 13 Sur 0 -- -- 93
2019-11-24 09:00:00 7 6 Sur 9 Sudoeste 0 -- -- 94
2019-11-24 08:00:00 6.8 6 Sudoeste 11 Sudoeste 0 -- -- 93
2019-11-24 07:00:00 6.8 11 Sudoeste 14 Sudoeste 0 -- -- 93
2019-11-24 06:00:00 7.1 11 Sudoeste 13 Sudoeste 0 -- -- 91
2019-11-24 05:00:00 7.3 8 Sudoeste 14 Sudoeste 0 -- -- 91
2019-11-24 04:00:00 7.4 14 Sudoeste 19 Sur 0 -- -- 90
2019-11-24 03:00:00 7.9 12 Sudoeste 15 Sudoeste 0 -- -- 88
2019-11-24 02:00:00 8.9 9 Sudoeste 13 Sudoeste 0 -- -- 84
2019-11-24 01:00:00 8.9 7 Sudoeste 14 Sudoeste 0 -- -- 86
2019-11-24 00:00:00 9.5 12 Oeste 15 Oeste 0 -- -- 84
2019-11-23 23:00:00 10 12 Oeste 15 Oeste 0 -- -- 81
2019-11-23 22:00:00 10.5 9 Oeste 20 Noroeste 0 -- -- 79
2019-11-23 21:00:00 11.4 17 Oeste 23 Oeste 0 -- -- 75
2019-11-23 20:00:00 12.2 16 Oeste 22 Oeste 0 -- -- 70
2019-11-23 19:00:00 12.7 13 Oeste 26 Oeste 0 -- -- 71
2019-11-23 18:00:00 14 19 Oeste 32 Noroeste 0 -- -- 65
2019-11-23 17:00:00 15.3 25 Noroeste 39 Oeste 0 -- -- 60
2019-11-23 16:00:00 15.9 28 Noroeste 50 Noroeste 0 -- -- 56
2019-11-23 15:00:00 16 29 Oeste 42 Oeste 0 -- -- 58
2019-11-23 14:00:00 15.2 27 Oeste 46 Oeste 0 -- -- 62
2019-11-23 13:00:00 14.5 30 Oeste 44 Oeste 0 -- -- 66
2019-11-23 12:00:00 13.8 30 Oeste 39 Noroeste 0 -- -- 76
2019-11-23 11:00:00 12.9 30 Oeste 36 Oeste 0.2 -- -- 86
2019-11-23 10:00:00 11.4 25 Sudoeste 30 Sudoeste 0 -- -- 95
2019-11-23 09:00:00 10.7 20 Sudoeste 25 Sudoeste 0 -- -- 94
2019-11-23 08:00:00 10.7 16 Sudoeste 28 Oeste 0 -- -- 90
2019-11-23 07:00:00 11.2 16 Oeste 27 Oeste 0 -- -- 91
2019-11-23 06:00:00 11.9 19 Oeste 38 Oeste 0.2 -- -- 89
2019-11-23 05:00:00 11.8 21 Oeste 34 Sudoeste 0 -- -- 92
2019-11-23 04:00:00 12 30 Sudoeste 44 Sudoeste 0 -- -- 91
2019-11-23 03:00:00 12.7 36 Sudoeste 57 Sudoeste 0 -- -- 90
2019-11-23 02:00:00 12.9 36 Sudoeste 56 Sudoeste 0 -- -- 90
2019-11-23 01:00:00 13 33 Sudoeste 59 Sudoeste 0.2 -- -- 89
2019-11-23 00:00:00 13.2 32 Sudoeste 42 Sudoeste 0 -- -- 91
2019-11-22 23:00:00 13.4 31 Sudoeste 37 Sudoeste 0 -- -- 91
2019-11-22 22:00:00 13.5 30 Sudoeste 40 Sudoeste 0 -- -- 91
2019-11-22 21:00:00 13.7 28 Oeste 45 Oeste 0 -- -- 89
2019-11-22 20:00:00 14.5 33 Oeste 54 Oeste 0 -- -- 85
2019-11-22 19:00:00 15.1 36 Oeste 65 Oeste 1.8 -- -- 92
2019-11-22 18:00:00 15.1 57 Oeste 81 Sudoeste 5 -- -- 94
2019-11-22 17:00:00 16.6 59 Sudoeste 80 Sudoeste 0.4 -- -- 94
2019-11-22 16:00:00 16.7 64 Sudoeste 83 Sudoeste 1 -- -- 94
2019-11-22 15:00:00 16.4 46 Sudoeste 88 Sudoeste 6.6 -- -- 96
2019-11-22 14:00:00 16.3 48 Sudoeste 70 Sudoeste 1 -- -- 96
2019-11-22 13:00:00 16.2 49 Sudoeste 70 Sudoeste 2.8 -- -- 97
2019-11-22 12:00:00 15.8 42 Sudoeste 61 Sudoeste 1.2 -- -- 97
2019-11-22 11:00:00 15.4 25 Sudoeste 35 Sudoeste 0 -- -- 98
2019-11-22 10:00:00 14.1 12 Sur 17 Sur 0.6 -- -- 98
2019-11-22 09:00:00 13.3 5 Sudeste 12 Sudeste 0.8 -- -- 98
2019-11-22 08:00:00 12.9 4 Sudeste 6 Sudeste 0 -- -- 98
2019-11-22 07:00:00 12.9 3 Nordeste 5 Oeste 0.6 -- -- 98
2019-11-22 06:00:00 12.9 2 Sudoeste 9 Noroeste 0 -- -- 98
2019-11-22 05:00:00 12.9 6 Oeste 12 Oeste 0 -- -- 97
2019-11-22 04:00:00 13.3 8 Noroeste 15 Oeste 0 -- -- 97
2019-11-22 03:00:00 13.6 13 Sudoeste 18 Oeste 0 -- -- 97
2019-11-22 02:00:00 13.4 12 Sudoeste 24 Oeste 1.6 -- -- 97
2019-11-22 01:00:00 13.4 18 Oeste 27 Sudoeste 0 -- -- 97
2019-11-22 00:00:00 13.6 18 Sudoeste 30 Sudoeste 0.4 -- -- 97
2019-11-21 23:00:00 13.7 17 Sudoeste 33 Sudoeste 1.2 -- -- 97
2019-11-21 22:00:00 13.3 10 Oeste 27 Sudoeste 4.2 -- -- 96
2019-11-21 21:00:00 13.8 21 Sudoeste 29 Sudoeste 0.8 -- -- 96
2019-11-21 20:00:00 13.7 9 Oeste 14 Oeste 0 -- -- 96
2019-11-21 19:00:00 13.6 3 Sur 8 Sur 0 -- -- 95
2019-11-21 18:00:00 13.8 3 Sur 5 Sur 0 -- -- 95
2019-11-21 17:00:00 13.6 0 Calma 11 Oeste 0.2 -- -- 96
2019-11-21 16:00:00 13.5 5 Noroeste 16 Noroeste 2.8 -- -- 96
2019-11-21 15:00:00 13.2 16 Norte 21 Norte 12 -- -- 96
2019-11-21 14:00:00 13.9 9 Oeste 17 Sudoeste 4.2 -- -- 96
2019-11-21 13:00:00 13.5 6 Noroeste 52 Oeste 3.8 -- -- 96
2019-11-21 12:00:00 14 6 Sur 14 Sur 0.6 -- -- 97
2019-11-21 11:00:00 12.9 7 Sur 15 Sudoeste 0.2 -- -- 97
2019-11-21 10:00:00 12.2 9 Sudoeste 12 Sudoeste 0.4 -- -- 97
2019-11-21 09:00:00 11.8 2 Noroeste 13 Sudoeste 1.8 -- -- 97
2019-11-21 08:00:00 11.8 9 Oeste 19 Sudoeste 2.2 -- -- 97
2019-11-21 07:00:00 11.5 4 Sudoeste 13 Sudoeste 0 -- -- 97
2019-11-21 06:00:00 11.4 8 Sudoeste 16 Sudoeste 3 -- -- 96
2019-11-21 05:00:00 11.3 8 Sudoeste 12 Sudoeste 3.2 -- -- 96
2019-11-21 04:00:00 11.3 9 Sudoeste 14 Sudoeste 0 -- -- 96
2019-11-21 03:00:00 11.1 6 Oeste 10 Oeste 4.2 -- -- 96
2019-11-21 02:00:00 11 5 Oeste 14 Sudoeste 0.2 -- -- 96
2019-11-21 01:00:00 11 12 Sudoeste 18 Sudoeste 0 -- -- 96
2019-11-21 00:00:00 11.1 14 Sudoeste 23 Sudoeste 0 -- -- 95
2019-11-20 23:00:00 10.8 7 Sudoeste 18 Sudoeste 1.4 -- -- 95
2019-11-20 22:00:00 10.9 16 Sudoeste 22 Sudoeste 1 -- -- 94
2019-11-20 21:00:00 11.2 11 Oeste 18 Sudoeste 0 -- -- 94
2019-11-20 20:00:00 11.2 14 Oeste 28 Sudoeste 0 -- -- 94
2019-11-20 19:00:00 12 27 Sudoeste 39 Sudoeste 0 -- -- 91
2019-11-20 18:00:00 11.7 14 Sudoeste 28 Sudoeste 0 -- -- 95
2019-11-20 17:00:00 10.6 0 Calma 11 Nordeste 0.2 -- -- 95
2019-11-20 16:00:00 9.8 8 Este 14 Este 2.6 -- -- 94
2019-11-20 15:00:00 9.5 9 Este 15 Este 0 -- -- 94
2019-11-20 14:00:00 9.1 7 Nordeste 17 Este 0.8 -- -- 94
2019-11-20 13:00:00 8.8 6 Nordeste 15 Este 0.2 -- -- 93
2019-11-20 12:00:00 8.4 6 Nordeste 14 Este 0 -- -- 93
2019-11-20 11:00:00 8.4 6 Nordeste 10 Nordeste 0.2 -- -- 92
2019-11-20 10:00:00 7.6 6 Este 8 Este 0 -- -- 93
2019-11-20 09:00:00 6.8 5 Este 7 Este 0 -- -- 93
2019-11-20 08:00:00 6.1 5 Este 8 Este 0 -- -- 93
2019-11-20 07:00:00 6.1 0 Calma 8 Sudeste 0 -- -- 92
2019-11-20 06:00:00 6.5 6 Sudeste 8 Sudeste 0 -- -- 91
2019-11-20 05:00:00 6.6 3 Sudeste 7 Sudeste 0 -- -- 93
2019-11-20 04:00:00 6.5 5 Este 9 Este 0 -- -- 92
2019-11-20 03:00:00 7 6 Este 8 Este 0 -- -- 91
2019-11-20 02:00:00 7.8 5 Nordeste 7 Nordeste 0 -- -- 88
2019-11-20 01:00:00 8.5 3 Norte 9 Sudeste 0 -- -- 85
2019-11-20 00:00:00 9.3 5 Este 9 Este 0 -- -- 82
2019-11-19 23:00:00 10 4 Este 11 Sudeste 0 -- -- 80
2019-11-19 22:00:00 11.1 4 Este 7 Sudeste 0 -- -- 79
2019-11-19 21:00:00 11.7 4 Este 6 Este 0 -- -- 75
2019-11-19 20:00:00 11.8 2 Este 4 Nordeste 0 -- -- 77
2019-11-19 19:00:00 12.5 2 Nordeste 4 Nordeste 0 -- -- 73
2019-11-19 18:00:00 13.5 0 Calma 9 Norte 0 -- -- 68
2019-11-19 17:00:00 15 2 Oeste 8 Noroeste 0 -- -- 58
2019-11-19 16:00:00 15 3 Norte 8 Noroeste 0 -- -- 58
2019-11-19 15:00:00 14.9 2 Noroeste 9 Norte 0 -- -- 60
2019-11-19 14:00:00 14 5 Nordeste 11 Nordeste 0 -- -- 64
2019-11-19 13:00:00 12.8 4 Nordeste 10 Este 0 -- -- 71
2019-11-19 12:00:00 10.6 5 Nordeste 13 Nordeste 0 -- -- 82
2019-11-19 11:00:00 8.7 5 Nordeste 9 Nordeste 0 -- -- 88
2019-11-19 10:00:00 7.2 5 Nordeste 13 Este 0 -- -- 93
2019-11-19 09:00:00 5.7 7 Este 12 Este 0 -- -- 94
2019-11-19 08:00:00 5.2 6 Este 12 Este 0 -- -- 93
2019-11-19 07:00:00 5.4 5 Nordeste 10 Nordeste 0 -- -- 92
2019-11-19 06:00:00 6.4 3 Norte 4 Este 0 -- -- 89
2019-11-19 05:00:00 7 3 Este 7 Sudeste 0 -- -- 89
2019-11-19 04:00:00 7.3 5 Sudeste 10 Sudeste 0 -- -- 88
2019-11-19 03:00:00 7.7 4 Sur 8 Sur 0 -- -- 88
2019-11-19 02:00:00 7.8 4 Este 7 Este 0 -- -- 87
2019-11-19 01:00:00 8.6 4 Este 10 Sudeste 0 -- -- 84
2019-11-19 00:00:00 9.3 3 Norte 6 Sudeste 0 -- -- 82
2019-11-18 23:00:00 10.1 4 Norte 6 Norte 0 -- -- 79
2019-11-18 22:00:00 10 6 Noroeste 8 Noroeste 0 -- -- 79
2019-11-18 21:00:00 11.8 4 Sudoeste 6 Sur 0 -- -- 70
2019-11-18 20:00:00 12.1 4 Sur 12 Sur 0 -- -- 71
2019-11-18 19:00:00 12.1 7 Sudoeste 14 Sudoeste 0 -- -- 76
2019-11-18 18:00:00 13.8 10 Sudoeste 15 Sudoeste 0 -- -- 71
2019-11-18 17:00:00 15 13 Sudoeste 21 Sudoeste 0 -- -- 67
2019-11-18 16:00:00 15.5 4 Sudoeste 14 Noroeste 0 -- -- 62
2019-11-18 15:00:00 15.5 8 Noroeste 18 Noroeste 0 -- -- 54
2019-11-18 14:00:00 14.7 4 Norte 10 Norte 0 -- -- 60
2019-11-18 13:00:00 12.9 6 Noroeste 13 Norte 0 -- -- 68
2019-11-18 12:00:00 11.7 5 Noroeste 12 Noroeste 0 -- -- 70
2019-11-18 11:00:00 10.5 6 Noroeste 17 Noroeste 0 -- -- 72
2019-11-18 10:00:00 9.4 13 Noroeste 16 Noroeste 0 -- -- 81
2019-11-18 09:00:00 7.4 4 Sudoeste 9 Oeste 0 -- -- 89
2019-11-18 08:00:00 7.5 6 Oeste 17 Norte 0 -- -- 88
2019-11-18 07:00:00 8.2 13 Noroeste 18 Noroeste 0 -- -- 86
2019-11-18 06:00:00 8.9 14 Noroeste 35 Noroeste 0 -- -- 86
2019-11-18 05:00:00 10.1 23 Noroeste 37 Noroeste 0 -- -- 86
2019-11-18 04:00:00 12.1 22 Oeste 36 Oeste 0.2 -- -- 94
2019-11-18 03:00:00 12.3 25 Oeste 33 Oeste 1.4 -- -- 94
2019-11-18 02:00:00 12.8 32 Sudoeste 51 Sudoeste 0.6 -- -- 95
2019-11-18 01:00:00 12.9 26 Sudoeste 44 Sudoeste 2.6 -- -- 95
2019-11-18 00:00:00 13.1 27 Sudoeste 34 Sudoeste 1.2 -- -- 93
2019-11-17 23:00:00 13.3 26 Sudoeste 37 Sudoeste 0.2 -- -- 94
2019-11-17 22:00:00 13.2 27 Sudoeste 43 Sudoeste 0 -- -- 95
2019-11-17 21:00:00 13.5 25 Sudoeste 35 Sudoeste 0 -- -- 95
2019-11-17 20:00:00 13.9 27 Sudoeste 43 Sudoeste 0 -- -- 94
2019-11-17 19:00:00 12.5 17 Sudoeste 21 Sudoeste 0 -- -- 96
2019-11-17 18:00:00 11.1 5 Norte 13 Oeste 0 -- -- 95
2019-11-17 17:00:00 12.6 11 Oeste 23 Oeste 0 -- -- 95
2019-11-17 16:00:00 12 19 Sudoeste 26 Sudoeste 0 -- -- 96
2019-11-17 15:00:00 10.7 18 Sudoeste 27 Sudoeste 0 -- -- 96
2019-11-17 14:00:00 9.3 13 Sudoeste 17 Sudoeste 0.2 -- -- 95
2019-11-17 13:00:00 8.6 6 Sudoeste 11 Sudoeste 0.2 -- -- 95
2019-11-17 12:00:00 7.8 7 Sudoeste 11 Sudoeste 0.2 -- -- 94
2019-11-17 11:00:00 6.2 8 Sudoeste 19 Sudoeste 0.2 -- -- 92
2019-11-17 10:00:00 6.2 14 Sudoeste 18 Sudoeste 0.2 -- -- 89
2019-11-17 09:00:00 6.2 7 Sudoeste 17 Sudoeste 0 -- -- 83
2019-11-17 08:00:00 5.9 10 Sudoeste 17 Sudoeste 0 -- -- 79
2019-11-17 07:00:00 5.2 9 Sudoeste 17 Sudoeste 0 -- -- 83
2019-11-17 06:00:00 5 14 Sur 17 Sur 0 -- -- 85
2019-11-17 05:00:00 4.7 10 Sudoeste 16 Sudoeste 0 -- -- 84
2019-11-17 04:00:00 5 11 Sudoeste 18 Sur 0 -- -- 84
2019-11-17 03:00:00 5.4 9 Sudoeste 14 Sur 0 -- -- 82
2019-11-17 02:00:00 5.6 12 Sur 19 Sudoeste 0 -- -- 82
2019-11-17 01:00:00 5.6 13 Sudoeste 20 Sur 0 -- -- 78
2019-11-17 00:00:00 6.7 14 Sur 19 Sur 0 -- -- 72
2019-11-16 23:00:00 7.5 8 Sur 14 Sur 0 -- -- 68
2019-11-16 22:00:00 8.3 12 Sur 19 Sur 0 -- -- 63
2019-11-16 21:00:00 9 13 Sur 17 Sudoeste 0 -- -- 58
2019-11-16 20:00:00 9.4 13 Sur 18 Sudoeste 0 -- -- 53
2019-11-16 19:00:00 10.4 13 Sudoeste 17 Sudoeste 0 -- -- 51
2019-11-16 18:00:00 12.8 12 Sudoeste 20 Sudoeste 0 -- -- 44
2019-11-16 17:00:00 14.1 14 Sudoeste 20 Sudoeste 0 -- -- 41
2019-11-16 16:00:00 14 12 Oeste 21 Oeste 0 -- -- 41
2019-11-16 15:00:00 13.5 11 Sudoeste 20 Sudoeste 0 -- -- 48
2019-11-16 14:00:00 12.5 5 Noroeste 10 Noroeste 0 -- -- 50
2019-11-16 13:00:00 11.2 4 Oeste 12 Noroeste 0 -- -- 54
2019-11-16 12:00:00 10.2 6 Noroeste 12 Noroeste 0 -- -- 58
2019-11-16 11:00:00 9.1 3 Este 7 Nordeste 0 -- -- 62
2019-11-16 10:00:00 6.1 0 Calma 6 Sur 0 -- -- 74
2019-11-16 09:00:00 3.6 4 Sudeste 12 Sur 0 -- -- 81
2019-11-16 08:00:00 2.8 5 Sur 9 Sur 0 -- -- 81
2019-11-16 07:00:00 3 9 Sudoeste 13 Sudoeste 0 -- -- 80
2019-11-16 06:00:00 3.5 6 Sur 9 Sudoeste 0 -- -- 77
2019-11-16 05:00:00 4.6 3 Noroeste 8 Noroeste 0 -- -- 74
2019-11-16 04:00:00 4.8 5 Sudoeste 9 Sudoeste 0 -- -- 73
2019-11-16 03:00:00 5.6 4 Noroeste 8 Noroeste 0 -- -- 72
2019-11-16 02:00:00 5.8 5 Noroeste 12 Noroeste 0 -- -- 71
2019-11-16 01:00:00 6.1 8 Noroeste 15 Noroeste 0 -- -- 69
2019-11-16 00:00:00 6.2 11 Noroeste 15 Noroeste 0 -- -- 71
2019-11-15 23:00:00 7.4 11 Noroeste 19 Oeste 0 -- -- 67
2019-11-15 22:00:00 8.7 15 Oeste 18 Oeste 0 -- -- 63
2019-11-15 21:00:00 9.3 9 Oeste 11 Oeste 0 -- -- 65
2019-11-15 20:00:00 9.8 7 Sudoeste 9 Sudoeste 0 -- -- 61
2019-11-15 19:00:00 9.8 6 Oeste 11 Oeste 0 -- -- 61
2019-11-15 18:00:00 11.2 10 Noroeste 17 Noroeste 0 -- -- 57
2019-11-15 17:00:00 11.7 10 Noroeste 21 Noroeste 0 -- -- 54
2019-11-15 16:00:00 11.5 11 Noroeste 18 Noroeste 0 -- -- 54
2019-11-15 15:00:00 10.6 6 Noroeste 16 Oeste 0.2 -- -- 60
2019-11-15 14:00:00 10.8 12 Oeste 21 Oeste 0 -- -- 57
2019-11-15 13:00:00 11.8 15 Oeste 26 Oeste 0 -- -- 56
2019-11-15 12:00:00 10 12 Noroeste 23 Oeste 0 -- -- 60
2019-11-15 11:00:00 8.3 8 Sudoeste 14 Sudoeste 0 -- -- 83
2019-11-15 10:00:00 6.6 10 Sudoeste 22 Sudoeste 0 -- -- 90
2019-11-15 09:00:00 5.1 12 Sur 15 Sur 0 -- -- 91
2019-11-15 08:00:00 4.9 6 Sur 17 Sudoeste 0 -- -- 91
2019-11-15 07:00:00 5.1 13 Sudoeste 19 Sudoeste 0 -- -- 89
2019-11-15 06:00:00 5.4 14 Sudoeste 21 Sudoeste 0 -- -- 88
2019-11-15 05:00:00 5.8 13 Sudoeste 24 Sudoeste 0 -- -- 88
2019-11-15 04:00:00 6.5 18 Sudoeste 24 Oeste 0 -- -- 89
2019-11-15 03:00:00 7.5 19 Oeste 30 Oeste 0 -- -- 82
2019-11-15 02:00:00 7.8 18 Oeste 28 Oeste 0 -- -- 80
2019-11-15 01:00:00 7.6 19 Sudoeste 32 Sudoeste 0 -- -- 87
2019-11-15 00:00:00 7.6 19 Sudoeste 28 Sudoeste 0 -- -- 87
2019-11-14 23:00:00 8.1 19 Sudoeste 27 Sudoeste 0 -- -- 84
2019-11-14 22:00:00 8.8 21 Sudoeste 27 Sudoeste 0 -- -- 80
2019-11-14 21:00:00 10 22 Sudoeste 30 Oeste 0 -- -- 76
2019-11-14 20:00:00 10.3 20 Sudoeste 27 Sudoeste 0 -- -- 74
2019-11-14 19:00:00 10.4 18 Oeste 29 Sudoeste 0 -- -- 75
2019-11-14 18:00:00 12.3 22 Oeste 42 Oeste 0 -- -- 63
2019-11-14 17:00:00 13.1 30 Oeste 41 Oeste 0 -- -- 60
2019-11-14 16:00:00 13.2 32 Oeste 45 Oeste 0 -- -- 59
2019-11-14 15:00:00 13.6 26 Noroeste 40 Noroeste 0 -- -- 65
2019-11-14 14:00:00 12.9 32 Oeste 44 Oeste 0 -- -- 75
2019-11-14 13:00:00 12.2 26 Oeste 39 Oeste 2.6 -- -- 90
2019-11-14 12:00:00 13.3 31 Oeste 52 Oeste 0 -- -- 81
2019-11-14 11:00:00 13.2 35 Sudoeste 49 Sudoeste 0 -- -- 79
2019-11-14 10:00:00 11.9 33 Sudoeste 43 Sudoeste 0 -- -- 88
2019-11-14 09:00:00 10.4 29 Sudoeste 39 Sudoeste 0 -- -- 91
2019-11-14 08:00:00 9.2 19 Sudoeste 28 Sudoeste 0 -- -- 93
2019-11-14 07:00:00 9.3 24 Sudoeste 29 Sudoeste 0 -- -- 93
2019-11-14 06:00:00 8.1 15 Sur 19 Sudoeste 0 -- -- 89
2019-11-14 05:00:00 9.4 9 Oeste 15 Oeste 0 -- -- 91
2019-11-14 04:00:00 10.7 11 Oeste 19 Noroeste 0 -- -- 85
2019-11-14 03:00:00 11.5 12 Oeste 21 Oeste 0 -- -- 89
2019-11-14 02:00:00 11.8 9 Sudoeste 21 Oeste 0 -- -- 88
2019-11-14 01:00:00 12 17 Oeste 24 Sudoeste 0 -- -- 92
2019-11-14 00:00:00 12.6 18 Sudoeste 23 Sudoeste 0 -- -- 92
2019-11-13 23:00:00 13.1 17 Sudoeste 26 Sudoeste 0 -- -- 89
2019-11-13 22:00:00 13.8 17 Sudoeste 27 Sudoeste 0 -- -- 88
2019-11-13 21:00:00 14.8 18 Sudoeste 28 Sudoeste 0 -- -- 84
2019-11-13 20:00:00 16.3 24 Sudoeste 33 Sudoeste 0 -- -- 78
2019-11-13 19:00:00 17.3 23 Sudoeste 29 Sudoeste 0 -- -- 68
2019-11-13 18:00:00 19.1 19 Sudoeste 32 Sudoeste 0 -- -- 56
2019-11-13 17:00:00 20.6 19 Oeste 38 Oeste 0 -- -- 52
2019-11-13 16:00:00 20.2 21 Oeste 38 Oeste 0 -- -- 54
2019-11-13 15:00:00 19.2 21 Oeste 41 Oeste 0 -- -- 64
2019-11-13 14:00:00 18.5 28 Sudoeste 38 Sudoeste 0 -- -- 72
2019-11-13 13:00:00 18 27 Oeste 42 Oeste 0 -- -- 72
2019-11-13 12:00:00 17.8 30 Oeste 48 Oeste 0 -- -- 72
2019-11-13 11:00:00 15.7 27 Sudoeste 39 Oeste 0 -- -- 79
2019-11-13 10:00:00 14.8 26 Oeste 35 Sudoeste 0 -- -- 84
2019-11-13 09:00:00 14 26 Sudoeste 39 Sudoeste 0 -- -- 87
2019-11-13 08:00:00 13.6 29 Sudoeste 40 Sudoeste 0 -- -- 88
2019-11-13 07:00:00 13.4 26 Sudoeste 34 Sudoeste 0 -- -- 86
2019-11-13 06:00:00 13.3 22 Sudoeste 31 Sudoeste 0 -- -- 85
2019-11-13 05:00:00 13.1 24 Sudoeste 43 Sudoeste 0 -- -- 82
2019-11-13 04:00:00 13.2 24 Sudoeste 32 Sudoeste 0 -- -- 80
2019-11-13 03:00:00 12.8 20 Sudoeste 27 Sudoeste 0 -- -- 77
2019-11-13 02:00:00 12.9 18 Sudoeste 25 Sudoeste 0 -- -- 72
2019-11-13 01:00:00 12.5 16 Sudoeste 21 Oeste 0 -- -- 70
2019-11-13 00:00:00 11.5 12 Oeste 15 Oeste 0 -- -- 68
2019-11-12 23:00:00 12.8 8 Oeste 26 Oeste 0 -- -- 62
2019-11-12 22:00:00 12.4 9 Sur 15 Sur 0 -- -- 59
2019-11-12 21:00:00 13.9 9 Norte 13 Noroeste 0 -- -- 56
2019-11-12 20:00:00 14.4 12 Norte 20 Norte 0 -- -- 52
2019-11-12 19:00:00 15.3 12 Noroeste 20 Noroeste 0 -- -- 46
2019-11-12 18:00:00 17.4 17 Noroeste 27 Noroeste 0 -- -- 39
2019-11-12 17:00:00 18.9 22 Noroeste 31 Noroeste 0 -- -- 37
2019-11-12 16:00:00 18.9 10 Oeste 21 Sudoeste 0 -- -- 44
2019-11-12 15:00:00 17.9 4 Noroeste 18 Oeste 0 -- -- 52
2019-11-12 14:00:00 16.6 8 Sudoeste 19 Oeste 0 -- -- 61
2019-11-12 13:00:00 15.9 5 Oeste 15 Noroeste 0 -- -- 61
2019-11-12 12:00:00 14.8 6 Norte 13 Norte 0 -- -- 68
2019-11-12 11:00:00 12.1 3 Nordeste 9 Nordeste 0 -- -- 84
2019-11-12 10:00:00 10.8 2 Nordeste 6 Nordeste 0 -- -- 94
2019-11-12 09:00:00 9.7 3 Nordeste 6 Este 0 -- -- 95
2019-11-12 08:00:00 8.8 0 Calma 5 Nordeste 0 -- -- 95
2019-11-12 07:00:00 8.9 4 Este 8 Nordeste 0 -- -- 94
2019-11-12 06:00:00 9.1 5 Este 9 Este 0 -- -- 94
2019-11-12 05:00:00 9.5 6 Este 10 Nordeste 0 -- -- 94
2019-11-12 04:00:00 9.5 4 Nordeste 11 Norte 0 -- -- 93
2019-11-12 03:00:00 9.8 5 Norte 10 Nordeste 0 -- -- 93
2019-11-12 02:00:00 9.8 3 Nordeste 10 Norte 0 -- -- 91
2019-11-12 01:00:00 10.9 4 Norte 9 Nordeste 0 -- -- 90
2019-11-12 00:00:00 12.1 5 Nordeste 9 Nordeste 0 -- -- 89